createdAt,value
2019-06-10T00:00:37.092Z,42.57
2019-06-10T00:03:07.266Z,43.31
2019-06-10T00:05:37.056Z,43.17
2019-06-10T00:08:07.123Z,42.16
2019-06-10T00:10:36.932Z,41.87
2019-06-10T00:13:07.350Z,42.23
2019-06-10T00:15:40.752Z,42.85
2019-06-10T00:18:33.325Z,42.14
2019-06-10T00:20:41.441Z,42.67
2019-06-10T00:23:12.677Z,42.73
2019-06-10T00:25:42.501Z,43.64
2019-06-10T00:28:12.403Z,43.23
2019-06-10T00:30:42.322Z,43.42
2019-06-10T00:33:12.735Z,43.51
2019-06-10T00:35:42.531Z,43.64
2019-06-10T00:38:14.321Z,43.77
2019-06-10T00:40:43.718Z,44.25
2019-06-10T00:43:13.754Z,44.31
2019-06-10T00:45:44.605Z,44.63
2019-06-10T00:48:25.169Z,44.89
2019-06-10T00:50:45.735Z,44.93
2019-06-10T00:53:15.451Z,44.98
2019-06-10T00:55:45.191Z,45.15
2019-06-10T00:58:14.902Z,45.41
2019-06-10T01:00:44.723Z,45.60
2019-06-10T01:03:15.298Z,45.89
2019-06-10T01:05:46.253Z,45.61
2019-06-10T01:08:15.958Z,45.71
2019-06-10T01:10:45.677Z,45.89
2019-06-10T01:13:15.587Z,46.24
2019-06-10T01:15:45.369Z,46.34
2019-06-10T01:18:34.156Z,46.73
2019-06-10T01:20:47.090Z,47.08
2019-06-10T01:23:17.601Z,47.40
2019-06-10T01:25:47.504Z,47.71
2019-06-10T01:28:18.514Z,47.76
2019-06-10T01:30:48.392Z,47.91
2019-06-10T01:33:18.098Z,47.99
2019-06-10T01:35:47.846Z,48.23
2019-06-10T01:38:18.362Z,48.61
2019-06-10T01:40:50.959Z,48.67
2019-06-10T01:43:21.548Z,48.77
2019-06-10T01:45:51.465Z,49.10
2019-06-10T01:48:21.288Z,49.48
2019-06-10T01:50:51.398Z,49.93
2019-06-10T01:53:22.253Z,50.48
2019-06-10T01:55:52.143Z,51.00
2019-06-10T01:58:23.639Z,51.33
2019-06-10T02:01:13.503Z,51.52
2019-06-10T02:03:41.532Z,51.63
2019-06-10T02:06:14.407Z,52.13
2019-06-10T02:08:42.963Z,52.05
2019-06-10T02:11:15.714Z,52.10
2019-06-10T02:13:44.097Z,52.08
2019-06-10T02:16:15.786Z,51.90
2019-06-10T02:18:59.799Z,51.77
2019-06-10T02:21:18.024Z,51.59
2019-06-10T02:23:48.275Z,51.42
2019-06-10T02:26:19.335Z,51.49
2019-06-10T02:28:51.255Z,51.44
2019-06-10T02:31:30.002Z,51.80
2019-06-10T02:33:52.741Z,51.88
2019-06-10T02:36:30.497Z,52.23
2019-06-10T02:38:54.224Z,52.33
2019-06-10T02:41:31.667Z,52.55
2019-06-10T02:43:55.347Z,52.89
2019-06-10T02:46:31.177Z,53.09
2019-06-10T02:49:16.410Z,53.37
2019-06-10T02:51:31.560Z,53.50
2019-06-10T02:54:04.450Z,53.45
2019-06-10T02:56:36.598Z,53.52
2019-06-10T02:59:03.879Z,53.90
2019-06-10T03:01:37.883Z,53.93
2019-06-10T03:04:05.162Z,53.85
2019-06-10T03:07:07.754Z,53.87
2019-06-10T03:09:37.454Z,54.04
2019-06-10T03:12:07.299Z,54.29
2019-06-10T03:14:36.984Z,54.40
2019-06-10T03:17:12.462Z,54.61
2019-06-10T03:19:50.150Z,54.92
2019-06-10T03:22:13.894Z,55.11
2019-06-10T03:24:43.586Z,55.23
2019-06-10T03:27:13.310Z,55.34
2019-06-10T03:29:43.000Z,55.45
2019-06-10T03:32:16.577Z,55.47
2019-06-10T03:34:47.195Z,55.45
2019-06-10T03:37:16.328Z,55.61
2019-06-10T03:39:46.139Z,55.63
2019-06-10T03:42:16.984Z,55.72
2019-06-10T03:44:46.706Z,55.63
2019-06-10T03:47:17.089Z,55.90
2019-06-10T03:49:52.577Z,55.80
2019-06-10T03:52:19.327Z,55.87
2019-06-10T03:54:49.125Z,55.72
2019-06-10T03:57:19.249Z,55.82
2019-06-10T03:59:49.075Z,55.76
2019-06-10T04:02:19.416Z,55.63
2019-06-10T04:04:49.353Z,55.67
2019-06-10T04:07:20.899Z,55.67
2019-06-10T04:09:52.509Z,55.80
2019-06-10T04:12:24.269Z,55.70
2019-06-10T04:14:53.417Z,55.79
2019-06-10T04:17:25.095Z,55.47
2019-06-10T04:20:07.921Z,55.53
2019-06-10T04:22:26.866Z,55.19
2019-06-10T04:24:57.485Z,54.98
2019-06-10T04:27:28.397Z,54.92
2019-06-10T04:29:58.326Z,54.78
2019-06-10T04:32:29.130Z,54.98
2019-06-10T04:34:58.981Z,55.21
2019-06-10T04:37:29.552Z,55.37
2019-06-10T04:39:59.379Z,55.73
2019-06-10T04:42:29.157Z,55.80
2019-06-10T04:44:58.865Z,56.05
2019-06-10T04:47:29.654Z,56.33
2019-06-10T04:49:59.511Z,56.39
2019-06-10T04:52:29.781Z,56.26
2019-06-10T04:55:02.523Z,56.10
2019-06-10T04:57:32.756Z,55.79
2019-06-10T05:00:10.986Z,56.07
2019-06-10T05:02:34.424Z,55.79
2019-06-10T05:05:04.838Z,55.65
2019-06-10T05:07:37.130Z,55.50
2019-06-10T05:10:06.540Z,55.00
2019-06-10T05:12:36.262Z,55.21
2019-06-10T05:15:07.407Z,55.24
2019-06-10T05:17:37.105Z,54.95
2019-06-10T05:20:07.315Z,55.23
2019-06-10T05:22:37.101Z,55.27
2019-06-10T05:25:07.109Z,55.26
2019-06-10T05:27:36.818Z,54.81
2019-06-10T05:30:07.848Z,55.06
2019-06-10T05:32:37.625Z,55.60
2019-06-10T05:35:07.774Z,55.10
2019-06-10T05:37:37.516Z,54.95
2019-06-10T05:40:07.791Z,55.47
2019-06-10T05:42:37.524Z,57.12
2019-06-10T05:45:08.832Z,56.78
2019-06-10T05:47:38.536Z,57.33
2019-06-10T05:50:08.786Z,57.54
2019-06-10T05:52:38.493Z,57.33
2019-06-10T05:55:08.854Z,55.93
2019-06-10T05:57:38.596Z,56.82
2019-06-10T06:00:13.838Z,55.98
2019-06-10T06:02:40.463Z,55.06
2019-06-10T06:05:12.683Z,53.94
2019-06-10T06:07:42.457Z,53.57
2019-06-10T06:10:13.201Z,52.66
2019-06-10T06:12:42.925Z,53.41
2019-06-10T06:15:13.349Z,53.06
2019-06-10T06:17:44.060Z,52.95
2019-06-10T06:20:15.661Z,52.88
2019-06-10T06:22:45.370Z,53.14
2019-06-10T06:25:15.823Z,53.72
2019-06-10T06:27:45.621Z,53.24
2019-06-10T06:30:18.686Z,52.55
2019-06-10T06:32:47.126Z,51.28
2019-06-10T06:35:17.025Z,50.47
2019-06-10T06:37:46.746Z,49.94
2019-06-10T06:40:17.017Z,49.43
2019-06-10T06:42:46.737Z,48.06
2019-06-10T06:45:15.871Z,41.57
2019-06-10T06:47:44.627Z,36.61
2019-06-10T06:50:13.843Z,36.80
2019-06-10T06:53:15.354Z,38.53
2019-06-10T06:55:16.735Z,41.44
2019-06-10T06:57:46.567Z,43.57
2019-06-10T07:00:38.244Z,45.08
2019-06-10T07:02:48.548Z,45.58
2019-06-10T07:05:18.433Z,44.16
2019-06-10T07:07:48.725Z,42.28
2019-06-10T07:10:18.411Z,37.53
2019-06-10T07:12:52.225Z,34.92
2019-06-10T07:15:25.429Z,33.68
2019-06-10T07:17:55.205Z,32.67
2019-06-10T07:20:24.937Z,33.05
2019-06-10T07:22:54.793Z,32.21
2019-06-10T07:25:24.502Z,32.00
2019-06-10T07:27:55.166Z,31.55
2019-06-10T07:30:24.868Z,31.88
2019-06-10T07:32:54.599Z,30.88
2019-06-10T07:35:24.363Z,30.61
2019-06-10T07:37:54.146Z,31.90
2019-06-10T07:40:23.988Z,34.77
2019-06-10T07:42:53.740Z,34.65
2019-06-10T07:45:23.574Z,34.90
2019-06-10T07:47:53.314Z,35.33
2019-06-10T07:50:23.266Z,35.60
2019-06-10T07:52:53.050Z,36.56
2019-06-10T07:55:22.759Z,37.40
2019-06-10T07:57:53.084Z,36.72
2019-06-10T08:00:24.269Z,35.95
2019-06-10T08:02:53.993Z,36.24
2019-06-10T08:05:23.780Z,35.46
2019-06-10T08:07:54.761Z,34.93
2019-06-10T08:10:24.818Z,34.83
2019-06-10T08:12:55.625Z,32.78
2019-06-10T08:15:25.419Z,31.78
2019-06-10T08:17:55.561Z,31.89
2019-06-10T08:20:45.038Z,31.63
2019-06-10T08:23:15.144Z,30.32
2019-06-10T08:25:52.939Z,29.32
2019-06-10T08:28:17.368Z,28.23
2019-06-10T08:30:48.258Z,27.40
2019-06-10T08:33:18.158Z,26.33
2019-06-10T08:35:56.092Z,27.18
2019-06-10T08:38:19.520Z,27.33
2019-06-10T08:40:49.264Z,28.27
2019-06-10T08:43:19.068Z,28.60
2019-06-10T08:45:48.921Z,28.20
2019-06-10T08:48:18.693Z,29.14
2019-06-10T08:50:50.072Z,29.99
2019-06-10T08:53:22.510Z,30.08
2019-06-10T08:55:53.637Z,31.12
2019-06-10T08:58:23.312Z,30.43
2019-06-10T09:00:53.810Z,29.78
2019-06-10T09:03:23.932Z,29.91
2019-06-10T09:05:56.225Z,30.22
2019-06-10T09:08:25.770Z,30.82
2019-06-10T09:10:55.765Z,31.19
2019-06-10T09:13:25.432Z,30.92
2019-06-10T09:16:11.751Z,31.71
2019-06-10T09:18:27.699Z,32.11
2019-06-10T09:20:57.493Z,32.82
2019-06-10T09:23:27.227Z,33.33
2019-06-10T09:25:57.833Z,33.65
2019-06-10T09:28:28.645Z,34.14
2019-06-10T09:30:59.636Z,34.21
2019-06-10T09:33:29.707Z,35.20
2019-06-10T09:35:59.418Z,35.65
2019-06-10T09:38:29.185Z,35.54
2019-06-10T09:41:03.040Z,35.30
2019-06-10T09:43:32.983Z,35.14
2019-06-10T09:46:03.503Z,33.84
2019-06-10T09:48:33.728Z,34.01
2019-06-10T09:51:03.916Z,31.68
2019-06-10T09:53:42.241Z,31.05
2019-06-10T09:56:05.240Z,31.58
2019-06-10T09:58:34.943Z,29.51
2019-06-10T10:01:04.928Z,28.78
2019-06-10T10:03:34.615Z,29.04
2019-06-10T10:06:14.625Z,29.36
2019-06-10T10:08:36.771Z,31.63
2019-06-10T10:11:06.639Z,33.26
2019-06-10T10:13:36.520Z,34.88
2019-06-10T10:16:06.513Z,35.47
2019-06-10T10:18:36.297Z,36.15
2019-06-10T10:21:06.072Z,36.20
2019-06-10T10:23:50.068Z,36.55
2019-06-10T10:26:07.210Z,36.10
2019-06-10T10:28:36.918Z,36.07
2019-06-10T10:31:06.678Z,32.30
2019-06-10T10:33:36.374Z,30.81
2019-06-10T10:36:06.102Z,29.63
2019-06-10T10:38:35.780Z,29.19
2019-06-10T10:41:05.952Z,29.64
2019-06-10T10:43:37.990Z,31.20
2019-06-10T10:46:13.862Z,31.88
2019-06-10T10:48:42.963Z,33.14
2019-06-10T10:51:13.427Z,31.43
2019-06-10T10:53:48.235Z,31.00
2019-06-10T10:56:14.735Z,31.73
2019-06-10T10:58:46.998Z,32.50
2019-06-10T11:01:16.422Z,32.81
2019-06-10T11:03:48.207Z,33.36
2019-06-10T11:06:18.484Z,33.02
2019-06-10T11:08:48.723Z,32.94
2019-06-10T11:11:22.837Z,30.89
2019-06-10T11:13:56.391Z,29.39
2019-06-10T11:16:23.367Z,28.25
2019-06-10T11:18:55.995Z,27.86
2019-06-10T11:21:24.792Z,27.92
2019-06-10T11:24:00.797Z,29.08
2019-06-10T11:26:27.019Z,29.83
2019-06-10T11:28:57.927Z,29.73
2019-06-10T11:31:27.786Z,29.16
2019-06-10T11:33:59.107Z,29.87
2019-06-10T11:36:29.157Z,30.00
2019-06-10T11:38:59.270Z,29.17
2019-06-10T11:41:29.125Z,29.09
2019-06-10T11:43:59.379Z,31.62
2019-06-10T11:46:29.176Z,32.03
2019-06-10T11:48:59.149Z,31.44
2019-06-10T11:51:29.136Z,31.46
2019-06-10T11:53:59.036Z,30.82
2019-06-10T11:56:28.999Z,30.59
2019-06-10T11:59:00.463Z,29.65
2019-06-10T12:01:30.957Z,29.50
2019-06-10T12:04:03.972Z,29.84
2019-06-10T12:06:33.950Z,29.24
2019-06-10T12:09:07.257Z,29.57
2019-06-10T12:11:36.965Z,30.95
2019-06-10T12:14:07.028Z,30.14
2019-06-10T12:19:08.265Z,30.41
2019-06-10T12:21:38.232Z,31.15
2019-06-10T12:24:08.225Z,30.21
2019-06-10T12:26:38.097Z,30.10
2019-06-10T12:29:07.881Z,29.03
2019-06-10T12:31:37.753Z,26.92
2019-06-10T12:34:07.566Z,26.72
2019-06-10T12:36:38.289Z,26.03
2019-06-10T12:39:10.783Z,26.45
2019-06-10T12:41:42.893Z,27.22
2019-06-10T12:44:13.251Z,29.37
2019-06-10T12:46:43.453Z,30.68
2019-06-10T12:49:18.050Z,31.40
2019-06-10T12:51:45.867Z,32.82
2019-06-10T12:54:15.570Z,33.46
2019-06-10T12:56:45.750Z,33.94
2019-06-10T12:59:15.587Z,33.50
2019-06-10T13:01:46.501Z,33.48
2019-06-10T13:04:16.689Z,33.28
2019-06-10T13:06:48.317Z,34.64
2019-06-10T13:09:19.336Z,35.88
2019-06-10T13:11:49.452Z,35.28
2019-06-10T13:14:19.214Z,36.15
2019-06-10T13:16:48.977Z,35.11
2019-06-10T13:19:18.751Z,35.71
2019-06-10T13:21:48.612Z,35.69
2019-06-10T13:24:18.572Z,36.40
2019-06-10T13:26:48.376Z,35.30
2019-06-10T13:29:18.148Z,34.71
2019-06-10T13:31:48.016Z,35.48
2019-06-10T13:34:17.697Z,34.78
2019-06-10T13:36:47.608Z,33.93
2019-06-10T13:39:17.553Z,33.66
2019-06-10T13:41:47.312Z,33.92
2019-06-10T13:44:18.184Z,34.35
2019-06-10T13:46:48.176Z,34.00
2019-06-10T13:49:17.970Z,34.71
2019-06-10T13:51:47.784Z,34.65
2019-06-10T13:54:17.512Z,34.69
2019-06-10T13:56:47.781Z,35.01
2019-06-10T13:59:17.631Z,35.07
2019-06-10T14:01:47.342Z,35.29
2019-06-10T14:04:21.872Z,35.05
2019-06-10T14:06:50.521Z,34.59
2019-06-10T14:09:23.151Z,35.09
2019-06-10T14:11:52.320Z,34.10
2019-06-10T14:14:23.036Z,34.37
2019-06-10T14:16:54.096Z,34.97
2019-06-10T14:19:24.357Z,34.49
2019-06-10T14:21:55.408Z,34.60
2019-06-10T14:24:25.113Z,34.37
2019-06-10T14:26:55.007Z,34.59
2019-06-10T14:29:25.156Z,34.20
2019-06-10T14:31:56.038Z,34.52
2019-06-10T14:34:25.942Z,32.98
2019-06-10T14:36:55.664Z,32.33
2019-06-10T14:39:25.577Z,32.42
2019-06-10T14:41:55.349Z,31.98
2019-06-10T14:44:25.364Z,33.01
2019-06-10T14:46:55.245Z,32.66
2019-06-10T14:49:25.210Z,32.15
2019-06-10T14:51:54.981Z,32.74
2019-06-10T14:54:24.839Z,31.96
2019-06-10T14:56:57.396Z,32.66
2019-06-10T14:59:26.526Z,33.46
2019-06-10T15:01:56.254Z,33.56
2019-06-10T15:04:26.133Z,33.63
2019-06-10T15:06:55.967Z,33.48
2019-06-10T15:09:25.875Z,33.28
2019-06-10T15:11:55.595Z,33.19
2019-06-10T15:14:25.675Z,31.99
2019-06-10T15:16:55.886Z,33.36
2019-06-10T15:19:29.085Z,33.74
2019-06-10T15:21:57.838Z,32.77
2019-06-10T15:24:27.702Z,31.13
2019-06-10T15:27:12.159Z,31.07
2019-06-10T15:29:29.393Z,31.98
2019-06-10T15:32:13.587Z,33.67
2019-06-10T15:34:32.564Z,33.44
2019-06-10T15:37:02.981Z,31.87
2019-06-10T15:39:33.606Z,32.48
2019-06-10T15:42:03.520Z,34.16
2019-06-10T15:44:48.458Z,34.43
2019-06-10T15:47:05.313Z,32.97
2019-06-10T15:49:36.692Z,33.50
2019-06-10T15:52:06.880Z,33.54
2019-06-10T15:54:36.593Z,32.61
2019-06-10T15:57:19.293Z,32.15
2019-06-10T15:59:39.248Z,32.74
2019-06-10T16:02:09.206Z,33.99
2019-06-10T16:04:39.316Z,33.77
2019-06-10T16:07:09.646Z,34.09
2019-06-10T16:09:42.323Z,32.99
2019-06-10T16:12:14.360Z,33.76
2019-06-10T16:14:42.675Z,32.45
2019-06-10T16:17:13.913Z,33.11
2019-06-10T16:19:44.029Z,33.42
2019-06-10T16:22:14.498Z,33.45
2019-06-10T16:24:45.752Z,33.74
2019-06-10T16:27:15.893Z,33.47
2019-06-10T16:29:45.704Z,33.27
2019-06-10T16:32:16.308Z,33.25
2019-06-10T16:34:46.180Z,33.56
2019-06-10T16:37:17.070Z,33.64
2019-06-10T16:39:46.952Z,33.91
2019-06-10T16:42:17.432Z,32.88
2019-06-10T16:44:47.820Z,32.71
2019-06-10T16:47:19.111Z,32.93
2019-06-10T16:49:49.294Z,34.24
2019-06-10T16:52:19.519Z,34.43
2019-06-10T16:54:49.768Z,32.96
2019-06-10T16:57:19.857Z,33.35
2019-06-10T16:59:52.093Z,33.07
2019-06-10T17:02:23.936Z,33.50
2019-06-10T17:04:53.356Z,33.24
2019-06-10T17:07:23.085Z,33.96
2019-06-10T17:09:53.955Z,33.54
2019-06-10T17:12:25.974Z,34.20
2019-06-10T17:14:55.192Z,33.92
2019-06-10T17:17:26.578Z,33.74
2019-06-10T17:19:56.512Z,34.69
2019-06-10T17:22:28.706Z,34.73
2019-06-10T17:24:57.712Z,34.16
2019-06-10T17:27:27.945Z,34.50
2019-06-10T17:29:58.875Z,34.45
2019-06-10T17:32:28.724Z,35.64
2019-06-10T17:34:58.616Z,35.01
2019-06-10T17:37:33.759Z,35.02
2019-06-10T17:40:03.039Z,35.31
2019-06-10T17:42:38.012Z,35.13
2019-06-10T17:45:05.324Z,35.46
2019-06-10T17:47:35.179Z,36.16
2019-06-10T17:50:05.861Z,36.49
2019-06-10T17:52:38.806Z,36.54
2019-06-10T17:55:08.623Z,36.41
2019-06-10T17:57:38.647Z,35.80
2019-06-10T18:00:12.239Z,36.79
2019-06-10T18:02:42.638Z,39.62
2019-06-10T18:05:12.931Z,40.06
2019-06-10T18:07:42.990Z,41.22
2019-06-10T18:10:13.618Z,39.01
2019-06-10T18:12:43.327Z,39.08
2019-06-10T18:15:14.979Z,41.00
2019-06-10T18:17:44.841Z,40.83
2019-06-10T18:20:17.794Z,40.39
2019-06-10T18:22:47.562Z,39.95
2019-06-10T18:25:18.722Z,39.52
2019-06-10T18:27:48.590Z,41.65
2019-06-10T18:30:18.587Z,40.83
2019-06-10T18:32:48.355Z,39.83
2019-06-10T18:35:18.645Z,39.79
2019-06-10T18:37:48.401Z,39.81
2019-06-10T18:40:18.757Z,39.56
2019-06-10T18:42:48.546Z,40.45
2019-06-10T18:45:18.957Z,39.71
2019-06-10T18:47:48.689Z,39.89
2019-06-10T18:50:18.818Z,40.29
2019-06-10T18:52:50.258Z,40.56
2019-06-10T18:55:22.590Z,41.35
2019-06-10T18:57:52.989Z,41.82
2019-06-10T19:00:23.452Z,41.95
2019-06-10T19:03:08.711Z,42.07
2019-06-10T19:05:24.978Z,42.30
2019-06-10T19:07:54.825Z,42.34
2019-06-10T19:10:25.827Z,42.54
2019-06-10T19:12:55.606Z,42.87
2019-06-10T19:15:25.479Z,42.97
2019-06-10T19:17:55.411Z,42.87
2019-06-10T19:20:25.503Z,42.84
2019-06-10T19:22:55.449Z,43.32
2019-06-10T19:25:25.767Z,43.40
2019-06-10T19:27:55.638Z,43.62
2019-06-10T19:30:27.783Z,46.25
2019-06-10T19:32:57.736Z,45.65
2019-06-10T19:35:27.657Z,45.57
2019-06-10T19:37:57.495Z,45.47
2019-06-10T19:40:27.618Z,46.05
2019-06-10T19:42:57.533Z,47.55
2019-06-10T19:45:27.411Z,46.88
2019-06-10T19:47:57.394Z,47.92
2019-06-10T19:50:27.330Z,45.78
2019-06-10T19:52:57.173Z,45.66
2019-06-10T19:55:26.935Z,46.95
2019-06-10T19:57:56.666Z,47.52
2019-06-10T20:00:26.613Z,47.52
2019-06-10T20:02:56.328Z,46.39
2019-06-10T20:05:26.332Z,47.70
2019-06-10T20:07:56.181Z,47.23
2019-06-10T20:10:26.062Z,46.98
2019-06-10T20:12:56.071Z,46.89
2019-06-10T20:15:26.826Z,47.41
2019-06-10T20:17:56.619Z,49.95
2019-06-10T20:20:26.476Z,51.71
2019-06-10T20:22:57.523Z,51.17
2019-06-10T20:25:27.905Z,50.66
2019-06-10T20:27:57.797Z,51.76
2019-06-10T20:30:29.178Z,50.84
2019-06-10T20:32:59.142Z,49.75
2019-06-10T20:35:29.111Z,49.86
2019-06-10T20:37:58.911Z,49.13
2019-06-10T20:40:28.784Z,49.14
2019-06-10T20:43:00.213Z,49.25
2019-06-10T20:45:33.230Z,49.79
2019-06-10T20:48:02.899Z,49.59
2019-06-10T20:50:32.745Z,51.08
2019-06-10T20:53:11.972Z,50.41
2019-06-10T20:55:42.073Z,51.19
2019-06-10T20:58:07.338Z,53.30
2019-06-10T21:00:44.161Z,51.73
2019-06-10T21:03:09.582Z,52.80
2019-06-10T21:05:41.569Z,53.43
2019-06-10T21:08:12.285Z,56.36
2019-06-10T21:10:45.157Z,53.31
2019-06-10T21:13:14.144Z,53.92
2019-06-10T21:15:47.502Z,53.96
2019-06-10T21:18:16.105Z,55.12
2019-06-10T21:20:49.614Z,54.05
2019-06-10T21:23:18.264Z,54.28
2019-06-10T21:25:50.688Z,54.22
2019-06-10T21:28:20.080Z,54.34
2019-06-10T21:30:54.925Z,55.13
2019-06-10T21:33:23.473Z,54.48
2019-06-10T21:35:54.798Z,54.45
2019-06-10T21:38:24.843Z,54.60
2019-06-10T21:40:54.766Z,54.57
2019-06-10T21:43:24.830Z,54.68
2019-06-10T21:45:57.793Z,55.08
2019-06-10T21:48:27.189Z,55.63
2019-06-10T21:50:56.916Z,55.89
2019-06-10T21:53:26.913Z,56.30
2019-06-10T21:55:56.715Z,56.71
2019-06-10T21:58:26.519Z,57.06
2019-06-10T22:01:09.798Z,57.21
2019-06-10T22:03:28.010Z,57.37
2019-06-10T22:05:57.863Z,57.51
2019-06-10T22:08:27.623Z,57.76
2019-06-10T22:10:57.396Z,57.85
2019-06-10T22:13:27.308Z,58.09
2019-06-10T22:15:57.292Z,58.34
2019-06-10T22:18:28.027Z,58.55
2019-06-10T22:20:57.924Z,58.71
2019-06-10T22:23:27.797Z,58.85
2019-06-10T22:25:57.791Z,59.21
2019-06-10T22:28:27.912Z,59.45
2019-06-10T22:31:15.205Z,59.69
2019-06-10T22:33:29.984Z,59.87
2019-06-10T22:36:02.189Z,60.02
2019-06-10T22:38:32.806Z,60.29
2019-06-10T22:41:03.349Z,60.69
2019-06-10T22:43:33.280Z,60.99
2019-06-10T22:46:04.166Z,61.51
2019-06-10T22:48:33.938Z,62.07
2019-06-10T22:51:03.720Z,62.46
2019-06-10T22:53:33.608Z,62.69
2019-06-10T22:56:03.327Z,63.13
2019-06-10T22:58:33.229Z,63.47
2019-06-10T23:01:04.225Z,63.80
2019-06-10T23:03:34.200Z,64.32
2019-06-10T23:06:04.528Z,64.76
2019-06-10T23:08:34.465Z,65.24
2019-06-10T23:11:04.670Z,65.61
2019-06-10T23:13:34.574Z,65.94
2019-06-10T23:16:04.474Z,66.14
2019-06-10T23:18:34.165Z,66.42
2019-06-10T23:21:04.645Z,66.81
2019-06-10T23:23:34.377Z,66.89
2019-06-10T23:26:04.143Z,67.04
2019-06-10T23:28:34.103Z,67.24
2019-06-10T23:31:05.294Z,67.11
2019-06-10T23:33:35.628Z,67.08
2019-06-10T23:36:05.355Z,67.05
2019-06-10T23:38:35.112Z,66.92
2019-06-10T23:41:05.024Z,66.70
2019-06-10T23:43:34.738Z,66.63
2019-06-10T23:46:04.619Z,66.71
2019-06-10T23:48:34.451Z,66.90
2019-06-10T23:51:05.182Z,67.04
2019-06-10T23:53:35.809Z,66.99
2019-06-10T23:56:06.089Z,67.31
2019-06-10T23:58:36.050Z,67.27
